Time;durP1;ratioP1;P1;durP2;ratioP2;P2;SDS_P1;SDS_P2;PMS_P1;PMS_P2;Temp;Humidity;BMP_temperature;BMP_pressure;BME280_temperature;BME280_humidity;BME280_pressure;Samples;Min_cycle;Max_cycle;Signal;HPM_P1;HPM_P2
2023/05/29 00:01:31;;;;;;;2.43;1.93;;;22.10;87.30;;;;;;5042311;28;20453;-50
2023/05/29 00:03:58;;;;;;;2.30;2.03;;;22.10;86.20;;;;;;5035816;28;20462;-54
2023/05/29 00:06:25;;;;;;;2.42;2.22;;;22.00;85.50;;;;;;5042212;28;20192;-52
2023/05/29 00:08:53;;;;;;;2.05;1.30;;;22.00;86.20;;;;;;5037699;28;20216;-52
2023/05/29 00:11:20;;;;;;;3.10;1.70;;;22.00;86.40;;;;;;5049036;28;20192;-51
2023/05/29 00:13:47;;;;;;;2.03;1.80;;;22.10;86.00;;;;;;5047839;28;20968;-54
2023/05/29 00:16:13;;;;;;;2.53;2.33;;;22.00;85.70;;;;;;5042905;28;20683;-51
2023/05/29 00:18:45;;;;;;;1.70;1.60;;;22.10;86.20;;;;;;5049037;28;20527;-53
2023/05/29 00:21:12;;;;;;;2.10;1.73;;;22.00;86.30;;;;;;5046561;28;20195;-51
2023/05/29 00:23:39;;;;;;;2.22;1.98;;;22.00;86.80;;;;;;5038122;28;20850;-54
2023/05/29 00:26:07;;;;;;;2.03;1.83;;;22.10;87.10;;;;;;5045862;28;20416;-52
2023/05/29 00:28:35;;;;;;;2.37;1.80;;;22.00;87.00;;;;;;5045266;28;20482;-52
2023/05/29 00:31:03;;;;;;;2.20;1.90;;;22.00;85.90;;;;;;5041356;28;20454;-50
2023/05/29 00:33:29;;;;;;;2.50;2.30;;;22.10;85.40;;;;;;5045703;28;20485;-51
2023/05/29 00:35:56;;;;;;;1.92;1.73;;;22.00;85.90;;;;;;5046046;28;20477;-51
2023/05/29 00:38:23;;;;;;;2.60;2.40;;;22.10;86.10;;;;;;5042520;28;20203;-51
2023/05/29 00:40:50;;;;;;;2.00;1.83;;;22.00;86.30;;;;;;5046043;28;20211;-49
2023/05/29 00:43:18;;;;;;;2.30;2.10;;;22.00;86.20;;;;;;5050410;28;20454;-50
2023/05/29 00:45:44;;;;;;;2.10;1.90;;;22.00;86.40;;;;;;5048917;28;20468;-52
2023/05/29 00:48:11;;;;;;;2.53;2.13;;;22.10;86.60;;;;;;5043313;28;20466;-51
2023/05/29 00:50:38;;;;;;;1.80;1.70;;;22.10;86.90;;;;;;5057062;28;20195;-51
2023/05/29 00:53:07;;;;;;;4.80;1.93;;;22.00;86.90;;;;;;5044566;28;20219;-51
2023/05/29 00:55:35;;;;;;;2.00;1.80;;;22.00;86.90;;;;;;5051154;28;20480;-50
2023/05/29 00:58:02;;;;;;;2.00;1.80;;;22.00;86.90;;;;;;5040395;28;20191;-53
2023/05/29 01:00:30;;;;;;;2.33;2.05;;;22.00;87.10;;;;;;5055927;28;20485;-50
2023/05/29 01:02:58;;;;;;;2.38;1.90;;;22.00;87.50;;;;;;5047670;28;20204;-52
2023/05/29 01:05:24;;;;;;;1.67;1.58;;;22.00;87.40;;;;;;5044433;28;20195;-52
2023/05/29 01:07:51;;;;;;;2.10;1.90;;;22.00;87.20;;;;;;5041589;28;20193;-51
2023/05/29 01:10:18;;;;;;;1.90;1.70;;;22.00;87.50;;;;;;5050084;28;20531;-51
2023/05/29 01:12:50;;;;;;;2.60;1.80;;;22.00;87.40;;;;;;5042073;28;20469;-53
2023/05/29 01:15:28;;;;;;;1.97;1.80;;;22.00;87.70;;;;;;5049571;28;20458;-50
2023/05/29 01:18:09;;;;;;;3.00;1.67;;;22.00;87.30;;;;;;5050603;28;20470;-52
2023/05/29 01:20:41;;;;;;;2.17;1.97;;;22.00;87.50;;;;;;5045521;28;20445;-51
2023/05/29 01:23:23;;;;;;;2.70;1.60;;;22.00;87.50;;;;;;5049574;28;20901;-50
2023/05/29 01:26:05;;;;;;;2.00;1.80;;;22.20;88.10;;;;;;5055768;28;20446;-49
2023/05/29 01:28:38;;;;;;;1.90;1.70;;;22.00;88.10;;;;;;5056337;28;20291;-51
2023/05/29 01:31:05;;;;;;;2.00;1.77;;;22.00;88.10;;;;;;5041419;28;20454;-50
2023/05/29 01:33:33;;;;;;;2.63;2.22;;;22.00;88.00;;;;;;5043086;28;20462;-51
2023/05/29 01:36:00;;;;;;;2.07;1.90;;;22.00;88.30;;;;;;5045804;28;20201;-51
2023/05/29 01:38:27;;;;;;;2.90;2.10;;;22.00;88.20;;;;;;5047857;28;20454;-49
2023/05/29 01:40:53;;;;;;;1.80;1.60;;;22.00;88.40;;;;;;5044748;28;20207;-50
2023/05/29 01:43:20;;;;;;;2.33;2.10;;;22.00;88.50;;;;;;5050693;28;20473;-51
2023/05/29 01:45:48;;;;;;;2.00;1.80;;;22.00;88.20;;;;;;5051699;28;20461;-50
2023/05/29 01:48:16;;;;;;;2.00;1.80;;;22.00;88.40;;;;;;5044213;28;20200;-50
2023/05/29 01:50:44;;;;;;;1.70;1.50;;;22.00;88.40;;;;;;5048826;28;20486;-54
2023/05/29 01:53:10;;;;;;;1.70;1.60;;;22.00;88.40;;;;;;5048738;28;20462;-54
2023/05/29 01:55:37;;;;;;;1.97;1.77;;;22.00;88.50;;;;;;5049864;28;20465;-51
2023/05/29 01:58:05;;;;;;;1.97;1.77;;;22.00;89.20;;;;;;5053394;28;20445;-51
2023/05/29 02:00:32;;;;;;;2.40;2.20;;;22.10;88.40;;;;;;5044791;28;20536;-51
2023/05/29 02:03:00;;;;;;;1.90;1.80;;;22.10;86.70;;;;;;5049220;28;20458;-52
2023/05/29 02:05:27;;;;;;;3.00;1.35;;;22.00;86.50;;;;;;5050312;28;20442;-50
2023/05/29 02:07:54;;;;;;;1.85;1.73;;;22.00;86.80;;;;;;5045101;28;20210;-50
2023/05/29 02:10:21;;;;;;;1.88;1.50;;;22.00;86.00;;;;;;5049949;28;20254;-51
2023/05/29 02:12:48;;;;;;;1.60;1.40;;;21.90;85.60;;;;;;5039008;28;20211;-52
2023/05/29 02:15:14;;;;;;;2.10;1.90;;;22.00;86.30;;;;;;5046872;28;20462;-53
2023/05/29 02:17:41;;;;;;;1.67;1.57;;;21.90;86.50;;;;;;5034234;28;20549;-51
2023/05/29 02:20:10;;;;;;;1.67;1.57;;;22.00;86.60;;;;;;5048490;28;20577;-51
2023/05/29 02:22:37;;;;;;;2.37;2.10;;;21.90;86.70;;;;;;5044384;28;20529;-51
2023/05/29 02:25:04;;;;;;;2.03;1.57;;;21.90;87.10;;;;;;5052896;28;20462;-51
2023/05/29 02:27:31;;;;;;;1.97;1.77;;;21.80;87.00;;;;;;5046596;28;20458;-50
2023/05/29 02:29:58;;;;;;;1.83;1.50;;;21.90;87.10;;;;;;5047654;28;21063;-52
2023/05/29 02:32:25;;;;;;;2.00;1.80;;;21.90;87.10;;;;;;5047000;28;20465;-52
2023/05/29 02:34:53;;;;;;;1.63;1.40;;;22.00;87.40;;;;;;5048442;28;20457;-53
2023/05/29 02:37:25;;;;;;;1.60;1.47;;;21.80;87.20;;;;;;5040129;28;20968;-54
2023/05/29 02:39:51;;;;;;;2.00;1.60;;;22.00;87.30;;;;;;5042398;28;20464;-50
2023/05/29 02:42:18;;;;;;;2.23;2.03;;;22.00;87.40;;;;;;5055170;28;20476;-54
2023/05/29 02:44:45;;;;;;;2.13;1.93;;;21.90;87.10;;;;;;5050217;28;20476;-52
2023/05/29 02:47:12;;;;;;;2.60;2.40;;;22.00;87.30;;;;;;5048555;28;20513;-54
2023/05/29 02:49:38;;;;;;;1.63;1.53;;;21.90;87.30;;;;;;5056156;28;20480;-51
2023/05/29 02:52:06;;;;;;;2.00;1.73;;;21.90;87.20;;;;;;5045090;28;20961;-50
2023/05/29 02:54:34;;;;;;;1.40;1.30;;;22.00;87.40;;;;;;5044118;28;20458;-55
2023/05/29 02:57:02;;;;;;;2.27;1.90;;;21.80;87.30;;;;;;5045754;28;20933;-53
2023/05/29 02:59:29;;;;;;;1.57;1.40;;;21.90;87.30;;;;;;5053575;28;20497;-50
2023/05/29 03:01:55;;;;;;;2.40;1.90;;;21.90;87.40;;;;;;5047595;28;20511;-51
2023/05/29 03:04:22;;;;;;;2.10;1.43;;;21.90;87.50;;;;;;5045903;28;20945;-54
2023/05/29 03:06:49;;;;;;;2.00;1.90;;;21.80;87.40;;;;;;5049858;28;20503;-53
2023/05/29 03:09:16;;;;;;;2.37;2.17;;;21.90;87.70;;;;;;5041916;28;20477;-50
2023/05/29 03:11:44;;;;;;;1.53;1.43;;;21.80;87.50;;;;;;5047401;28;20504;-54
2023/05/29 03:14:11;;;;;;;2.10;1.63;;;21.90;87.70;;;;;;5041441;28;20549;-51
2023/05/29 03:16:38;;;;;;;2.00;1.27;;;21.80;87.70;;;;;;5046988;28;20450;-53
2023/05/29 03:19:05;;;;;;;2.13;1.63;;;21.80;87.70;;;;;;5045598;28;20469;-52
2023/05/29 03:21:32;;;;;;;2.10;1.80;;;21.90;87.90;;;;;;5046238;28;20462;-53
2023/05/29 03:23:58;;;;;;;1.40;1.20;;;21.90;87.80;;;;;;5047081;28;20582;-55
2023/05/29 03:26:25;;;;;;;1.85;1.70;;;21.90;87.90;;;;;;5045621;28;20442;-50
2023/05/29 03:28:53;;;;;;;1.60;1.40;;;21.90;87.80;;;;;;5046032;28;20238;-49
2023/05/29 03:31:20;;;;;;;2.17;1.98;;;21.80;87.80;;;;;;5041805;28;20470;-51
2023/05/29 03:33:47;;;;;;;1.60;1.50;;;21.80;88.70;;;;;;5042063;28;20197;-52
2023/05/29 03:36:14;;;;;;;1.87;1.63;;;21.80;87.80;;;;;;5049919;28;20501;-52
2023/05/29 03:38:40;;;;;;;2.40;1.83;;;21.80;87.90;;;;;;5035081;28;20470;-53
2023/05/29 03:41:07;;;;;;;2.00;1.90;;;21.80;88.00;;;;;;5045396;28;20202;-51
2023/05/29 03:43:34;;;;;;;1.52;1.35;;;21.80;88.00;;;;;;5048157;28;20261;-54
2023/05/29 03:46:02;;;;;;;1.80;1.70;;;21.80;87.80;;;;;;5049715;28;20199;-51
2023/05/29 03:48:28;;;;;;;1.63;1.30;;;21.70;87.70;;;;;;5046057;28;20643;-52
2023/05/29 03:50:55;;;;;;;1.92;1.75;;;21.80;88.10;;;;;;5049104;28;20226;-55
2023/05/29 03:53:22;;;;;;;1.70;1.60;;;21.90;88.10;;;;;;5053362;28;20208;-53
2023/05/29 03:55:49;;;;;;;1.73;1.45;;;21.90;88.30;;;;;;5045598;28;20463;-50
2023/05/29 03:58:15;;;;;;;2.10;1.90;;;21.80;88.00;;;;;;5055392;28;20265;-51
2023/05/29 04:00:42;;;;;;;1.43;1.30;;;21.80;88.00;;;;;;5043855;28;20465;-52
2023/05/29 04:03:11;;;;;;;1.65;1.52;;;21.70;87.90;;;;;;5055645;28;20602;-54
2023/05/29 04:05:37;;;;;;;1.57;1.40;;;21.70;87.80;;;;;;5045706;28;20236;-50
2023/05/29 04:08:04;;;;;;;2.08;1.98;;;21.80;87.80;;;;;;5041865;28;20500;-53
2023/05/29 04:10:33;;;;;;;2.25;1.88;;;21.80;87.70;;;;;;5046160;28;20306;-53
2023/05/29 04:13:00;;;;;;;1.92;1.50;;;21.80;87.70;;;;;;5052935;28;20188;-54
2023/05/29 04:15:27;;;;;;;1.80;1.70;;;21.80;87.90;;;;;;5039408;28;20191;-50
2023/05/29 04:17:54;;;;;;;1.55;1.40;;;21.70;87.70;;;;;;5049856;28;20611;-54
2023/05/29 04:20:22;;;;;;;2.30;1.80;;;21.70;87.80;;;;;;5054280;28;20571;-53
2023/05/29 04:22:49;;;;;;;1.60;1.27;;;21.80;88.10;;;;;;5047923;28;20507;-50
2023/05/29 04:25:16;;;;;;;1.95;1.80;;;22.00;88.50;;;;;;5051034;28;20215;-51
2023/05/29 04:27:43;;;;;;;1.92;1.77;;;21.80;88.20;;;;;;5053173;28;20205;-50
2023/05/29 04:30:10;;;;;;;2.38;1.48;;;21.70;88.10;;;;;;5045125;28;20215;-54
2023/05/29 04:32:36;;;;;;;1.60;1.50;;;21.80;88.00;;;;;;5043577;28;20196;-54
2023/05/29 04:35:03;;;;;;;1.95;1.75;;;21.80;88.10;;;;;;5049529;28;20199;-54
2023/05/29 04:37:37;;;;;;;1.92;1.80;;;21.70;88.00;;;;;;5055965;28;20270;-51
2023/05/29 04:40:08;;;;;;;2.05;1.83;;;21.70;88.80;;;;;;5051104;28;20223;-55
2023/05/29 04:42:35;;;;;;;1.70;1.60;;;21.70;88.10;;;;;;5042919;28;20188;-53
2023/05/29 04:45:02;;;;;;;1.45;1.23;;;21.70;89.00;;;;;;5046940;28;20203;-54
2023/05/29 04:47:29;;;;;;;2.05;1.75;;;21.70;88.10;;;;;;5057670;28;20205;-52
2023/05/29 04:49:55;;;;;;;2.03;1.83;;;21.70;88.20;;;;;;5049535;28;20215;-54
2023/05/29 04:52:23;;;;;;;2.08;1.45;;;21.70;88.30;;;;;;5048634;28;20603;-50
2023/05/29 04:54:52;;;;;;;1.63;1.45;;;21.70;88.20;;;;;;5054226;28;20222;-52
2023/05/29 04:57:18;;;;;;;1.60;1.50;;;21.70;88.20;;;;;;5053594;28;20254;-52
2023/05/29 04:59:45;;;;;;;1.27;1.10;;;21.70;88.30;;;;;;5045546;28;20218;-53
2023/05/29 05:02:12;;;;;;;2.17;1.60;;;21.60;88.20;;;;;;5045384;28;20462;-54
2023/05/29 05:04:38;;;;;;;2.22;1.50;;;21.70;88.10;;;;;;5054607;28;20195;-53
2023/05/29 05:07:06;;;;;;;1.20;1.10;;;21.60;87.90;;;;;;5041575;28;20207;-49
2023/05/29 05:09:33;;;;;;;1.80;1.55;;;21.70;88.00;;;;;;5038951;28;20458;-49
2023/05/29 05:12:01;;;;;;;1.40;1.30;;;21.70;88.00;;;;;;5045040;28;20283;-50
2023/05/29 05:14:28;;;;;;;1.63;1.40;;;21.70;88.20;;;;;;5048109;28;20215;-50
2023/05/29 05:16:55;;;;;;;1.45;1.35;;;21.70;88.10;;;;;;5052711;28;20208;-51
2023/05/29 05:19:22;;;;;;;1.70;1.60;;;21.60;88.10;;;;;;5045521;28;20200;-53
2023/05/29 05:21:49;;;;;;;2.10;1.90;;;21.70;88.10;;;;;;5049451;28;20195;-52
2023/05/29 05:24:16;;;;;;;1.70;1.60;;;21.70;88.30;;;;;;5046614;28;20212;-54
2023/05/29 05:26:42;;;;;;;1.67;1.50;;;21.70;88.10;;;;;;5050814;28;20202;-50
2023/05/29 05:29:10;;;;;;;3.20;1.67;;;21.80;88.40;;;;;;5044358;28;20192;-51
2023/05/29 05:31:37;;;;;;;2.30;1.70;;;21.80;88.40;;;;;;5048971;28;20479;-51
2023/05/29 05:34:04;;;;;;;2.25;1.73;;;21.70;88.40;;;;;;5055864;28;20191;-51
2023/05/29 05:36:31;;;;;;;1.42;1.20;;;21.70;88.20;;;;;;5042681;28;20191;-51
2023/05/29 05:38:57;;;;;;;1.63;1.48;;;21.80;88.20;;;;;;5050603;28;20639;-51
2023/05/29 05:41:24;;;;;;;1.40;1.20;;;21.70;88.10;;;;;;5052016;28;20207;-50
2023/05/29 05:43:51;;;;;;;1.30;1.20;;;21.70;88.20;;;;;;5050838;28;20627;-51
2023/05/29 05:46:19;;;;;;;1.70;1.60;;;21.80;88.40;;;;;;5054063;28;20462;-53
2023/05/29 05:48:46;;;;;;;1.60;1.30;;;21.80;88.20;;;;;;5045256;28;20242;-56
2023/05/29 05:51:13;;;;;;;1.90;1.60;;;21.70;88.10;;;;;;5048283;28;20481;-54
2023/05/29 05:53:40;;;;;;;2.00;1.58;;;21.70;88.30;;;;;;5045308;28;20458;-51
2023/05/29 05:56:07;;;;;;;1.55;1.20;;;21.70;88.40;;;;;;5054826;28;20563;-55
2023/05/29 05:58:34;;;;;;;1.23;1.10;;;21.80;89.30;;;;;;5045211;28;20253;-51
2023/05/29 06:01:01;;;;;;;1.27;1.08;;;21.90;88.70;;;;;;5042194;28;20795;-52
2023/05/29 06:03:29;;;;;;;1.33;1.23;;;21.90;88.80;;;;;;5038168;28;20225;-54
2023/05/29 06:05:56;;;;;;;1.57;1.40;;;21.90;88.50;;;;;;5051678;28;20458;-52
2023/05/29 06:08:22;;;;;;;1.43;1.33;;;21.80;88.40;;;;;;5042903;28;20861;-55
2023/05/29 06:10:49;;;;;;;2.20;1.77;;;22.00;88.90;;;;;;5046282;28;20821;-54
2023/05/29 06:13:16;;;;;;;1.40;1.20;;;21.90;88.60;;;;;;5051761;28;20541;-54
2023/05/29 06:15:43;;;;;;;1.20;1.07;;;22.00;89.00;;;;;;5046281;28;20540;-51
2023/05/29 06:18:10;;;;;;;1.33;1.13;;;21.90;88.90;;;;;;5054331;28;20830;-51
2023/05/29 06:20:38;;;;;;;1.27;1.17;;;21.90;88.90;;;;;;5054405;28;20488;-50
2023/05/29 06:23:05;;;;;;;2.03;1.57;;;22.00;89.20;;;;;;5042949;28;20797;-51
2023/05/29 06:25:33;;;;;;;1.17;1.05;;;22.00;89.80;;;;;;5048977;28;20451;-49
2023/05/29 06:28:00;;;;;;;1.53;1.43;;;22.10;89.40;;;;;;5051104;28;20192;-50
2023/05/29 06:30:27;;;;;;;1.50;1.40;;;22.00;88.90;;;;;;5045703;28;20526;-50
2023/05/29 06:32:53;;;;;;;1.70;1.20;;;22.10;88.70;;;;;;5037153;28;20458;-50
2023/05/29 06:35:20;;;;;;;1.93;1.63;;;22.10;88.80;;;;;;5039435;28;20454;-52
2023/05/29 06:37:48;;;;;;;1.60;1.15;;;22.10;88.70;;;;;;5039032;28;20450;-53
2023/05/29 06:40:15;;;;;;;2.03;1.30;;;22.10;88.60;;;;;;5044248;28;20192;-51
2023/05/29 06:42:44;;;;;;;1.63;1.47;;;22.10;89.30;;;;;;5042621;28;20511;-54
2023/05/29 06:45:13;;;;;;;1.63;1.07;;;22.20;88.90;;;;;;5048937;28;20462;-55
2023/05/29 06:47:39;;;;;;;1.33;1.23;;;22.10;89.00;;;;;;5046044;28;20573;-53
2023/05/29 06:50:07;;;;;;;1.30;1.10;;;22.10;89.30;;;;;;5047078;28;20446;-50
2023/05/29 06:52:34;;;;;;;1.40;1.20;;;22.10;89.30;;;;;;5045760;28;20459;-50
2023/05/29 06:55:02;;;;;;;2.27;1.10;;;22.30;89.70;;;;;;5046697;28;20468;-51
2023/05/29 06:57:29;;;;;;;2.20;1.20;;;22.10;89.30;;;;;;5044455;28;20788;-50
2023/05/29 06:59:56;;;;;;;1.70;1.47;;;22.20;89.50;;;;;;5042603;28;20473;-50
2023/05/29 07:02:22;;;;;;;1.67;1.30;;;22.30;89.70;;;;;;5045968;28;20496;-49
2023/05/29 07:04:49;;;;;;;1.97;1.40;;;22.20;89.50;;;;;;5042460;28;20494;-51
2023/05/29 07:07:16;;;;;;;1.30;1.20;;;22.20;89.30;;;;;;5048567;28;20817;-53
2023/05/29 07:09:43;;;;;;;2.70;1.30;;;22.20;89.60;;;;;;5047829;28;20470;-50
2023/05/29 07:12:11;;;;;;;1.43;1.30;;;22.20;89.50;;;;;;5041396;28;20471;-50
2023/05/29 07:14:37;;;;;;;1.60;1.30;;;22.30;89.80;;;;;;5044963;28;20450;-54
2023/05/29 07:17:05;;;;;;;2.77;1.40;;;22.20;89.70;;;;;;5048906;28;20445;-52
2023/05/29 07:19:32;;;;;;;1.37;1.27;;;22.20;89.70;;;;;;5047035;28;20545;-52
2023/05/29 07:21:59;;;;;;;1.40;1.10;;;22.20;89.90;;;;;;5050847;28;20446;-50
2023/05/29 07:24:26;;;;;;;2.60;1.07;;;22.20;90.00;;;;;;5036377;28;20483;-50
2023/05/29 07:26:54;;;;;;;2.10;1.60;;;22.30;90.10;;;;;;5044309;28;20457;-51
2023/05/29 07:29:23;;;;;;;1.87;1.67;;;22.30;90.10;;;;;;5044345;28;20505;-51
2023/05/29 07:31:49;;;;;;;4.80;1.60;;;22.20;88.70;;;;;;5044081;28;20482;-50
2023/05/29 07:34:16;;;;;;;8.57;1.77;;;22.20;88.50;;;;;;5049156;28;20453;-51
2023/05/29 07:36:58;;;;;;;2.95;1.52;;;22.20;88.50;;;;;;5048791;28;20442;-50
2023/05/29 07:39:25;;;;;;;4.63;1.90;;;22.10;88.30;;;;;;5038823;28;20722;-53
2023/05/29 07:41:52;;;;;;;12.00;2.00;;;22.10;88.10;;;;;;5048772;28;20496;-51
2023/05/29 07:44:19;;;;;;;13.63;2.53;;;22.10;87.60;;;;;;5042140;28;20546;-54
2023/05/29 07:46:47;;;;;;;3.73;1.80;;;22.10;86.90;;;;;;5039774;28;20469;-51
2023/05/29 07:49:14;;;;;;;3.83;1.63;;;22.10;87.10;;;;;;5044093;28;20457;-54
2023/05/29 07:51:41;;;;;;;4.00;2.03;;;22.10;87.10;;;;;;5042767;28;21039;-52
2023/05/29 07:54:08;;;;;;;8.80;1.87;;;22.10;86.90;;;;;;5041141;28;20516;-54
2023/05/29 07:56:34;;;;;;;4.80;1.77;;;22.30;86.90;;;;;;5044593;28;20966;-52
2023/05/29 07:59:03;;;;;;;3.70;2.23;;;22.00;86.60;;;;;;5049266;28;20442;-50
2023/05/29 08:01:29;;;;;;;7.83;3.37;;;22.10;86.50;;;;;;5047078;28;20981;-54
2023/05/29 08:03:57;;;;;;;8.33;2.43;;;22.10;86.50;;;;;;5044346;28;20462;-51
2023/05/29 08:06:24;;;;;;;5.90;1.90;;;22.10;86.00;;;;;;5053538;28;20442;-51
2023/05/29 08:08:51;;;;;;;9.00;2.50;;;22.10;85.60;;;;;;5047077;28;20973;-52
2023/05/29 08:11:18;;;;;;;5.70;2.30;;;22.00;85.40;;;;;;5049944;28;20500;-51
2023/05/29 08:13:45;;;;;;;5.70;1.80;;;22.00;85.60;;;;;;5050687;28;20453;-50
2023/05/29 08:16:14;;;;;;;7.50;2.37;;;22.00;86.10;;;;;;5051552;28;20610;-52
2023/05/29 08:18:40;;;;;;;7.77;1.70;;;22.00;86.20;;;;;;5048171;28;20480;-52
2023/05/29 08:21:09;;;;;;;9.07;1.90;;;22.00;86.20;;;;;;5044692;28;20465;-48
2023/05/29 08:23:35;;;;;;;3.40;1.93;;;22.00;86.40;;;;;;5042766;28;20481;-51
2023/05/29 08:26:03;;;;;;;8.70;3.77;;;22.10;86.10;;;;;;5048330;28;20523;-49
2023/05/29 08:28:30;;;;;;;9.63;2.27;;;22.00;85.60;;;;;;5056776;28;20449;-49
2023/05/29 08:30:56;;;;;;;8.27;2.23;;;22.00;85.40;;;;;;5049874;28;20822;-50
2023/05/29 08:33:23;;;;;;;16.13;2.33;;;22.00;85.70;;;;;;5053676;28;20871;-51
2023/05/29 08:35:50;;;;;;;24.53;3.40;;;22.00;85.80;;;;;;5051754;28;20450;-52
2023/05/29 08:38:18;;;;;;;7.22;1.98;;;22.00;85.80;;;;;;5048814;28;20454;-53
2023/05/29 08:40:44;;;;;;;14.77;2.27;;;22.10;86.20;;;;;;5051683;28;20650;-54
2023/05/29 08:43:15;;;;;;;17.10;2.50;;;22.10;85.80;;;;;;5057444;28;20453;-54
2023/05/29 08:45:44;;;;;;;6.00;2.17;;;22.00;85.60;;;;;;5051780;28;20496;-54
2023/05/29 08:48:12;;;;;;;4.73;2.03;;;22.00;85.70;;;;;;5056968;28;20821;-52
2023/05/29 08:50:45;;;;;;;7.50;2.33;;;22.00;85.90;;;;;;5056626;28;20445;-54
2023/05/29 08:53:12;;;;;;;10.65;2.67;;;22.10;86.00;;;;;;5044463;28;20822;-52
2023/05/29 08:55:40;;;;;;;3.70;2.07;;;22.10;86.20;;;;;;5051450;28;20247;-53
2023/05/29 08:58:08;;;;;;;8.07;1.90;;;22.10;86.50;;;;;;5049479;28;20438;-50
2023/05/29 09:00:35;;;;;;;6.90;2.20;;;22.10;86.40;;;;;;5052702;28;20785;-49
2023/05/29 09:03:02;;;;;;;5.60;2.70;;;22.10;86.40;;;;;;5044740;28;20462;-48
2023/05/29 09:05:30;;;;;;;6.73;2.10;;;22.10;86.50;;;;;;5045166;28;20430;-49
2023/05/29 09:07:57;;;;;;;7.17;1.90;;;22.20;86.60;;;;;;5043511;28;20955;-49
2023/05/29 09:10:25;;;;;;;3.87;2.37;;;22.10;86.60;;;;;;5047091;28;20462;-49
2023/05/29 09:12:53;;;;;;;6.70;2.20;;;22.10;85.60;;;;;;5049918;28;20509;-49
2023/05/29 09:15:22;;;;;;;9.83;2.00;;;22.10;84.70;;;;;;5050931;28;20507;-50
2023/05/29 09:17:52;;;;;;;4.30;2.47;;;22.00;84.50;;;;;;5050988;28;20544;-49
2023/05/29 09:20:23;;;;;;;2.03;1.83;;;22.00;84.70;;;;;;5051415;28;20446;-51
2023/05/29 09:22:56;;;;;;;7.87;2.50;;;22.10;85.30;;;;;;5048343;28;20464;-50
2023/05/29 09:25:24;;;;;;;4.33;1.93;;;22.10;85.90;;;;;;5044178;28;20442;-52
2023/05/29 09:27:59;;;;;;;2.50;1.70;;;22.20;87.30;;;;;;5044185;28;20512;-50
2023/05/29 09:30:39;;;;;;;5.63;2.03;;;22.10;84.60;;;;;;5046002;28;20449;-51
2023/05/29 09:33:07;;;;;;;2.80;1.57;;;22.10;84.60;;;;;;5046025;28;20565;-50
2023/05/29 09:35:35;;;;;;;2.90;1.60;;;22.10;85.70;;;;;;5046427;28;20458;-53
2023/05/29 09:38:02;;;;;;;4.07;1.83;;;22.10;86.00;;;;;;5039492;28;20979;-50
2023/05/29 09:40:32;;;;;;;3.73;1.90;;;22.10;86.10;;;;;;5045004;28;20438;-51
2023/05/29 09:43:08;;;;;;;6.53;2.57;;;22.10;85.90;;;;;;5051756;28;20526;-50
2023/05/29 09:45:39;;;;;;;3.90;1.93;;;22.10;86.10;;;;;;5042655;28;20458;-51
2023/05/29 09:48:07;;;;;;;4.87;1.57;;;22.20;86.20;;;;;;5049134;28;20458;-50
2023/05/29 09:50:35;;;;;;;6.07;2.50;;;22.10;85.90;;;;;;5047543;28;21006;-49
2023/05/29 09:53:02;;;;;;;6.13;2.30;;;22.20;86.30;;;;;;5043596;28;20484;-52
2023/05/29 09:55:31;;;;;;;7.70;1.70;;;22.10;86.30;;;;;;5043263;28;20462;-53
2023/05/29 09:57:59;;;;;;;5.38;2.10;;;22.10;86.10;;;;;;5051264;28;20434;-51
2023/05/29 10:00:27;;;;;;;3.27;1.90;;;22.10;86.00;;;;;;5047404;28;20196;-51
2023/05/29 10:02:55;;;;;;;5.53;2.00;;;22.10;86.40;;;;;;5040338;28;20469;-50
2023/05/29 10:05:22;;;;;;;6.33;2.07;;;22.10;86.60;;;;;;5051850;28;20482;-55
2023/05/29 10:07:53;;;;;;;6.63;2.10;;;22.20;86.90;;;;;;5047652;28;20465;-53
2023/05/29 10:10:21;;;;;;;4.33;1.80;;;22.10;86.80;;;;;;5049392;28;20457;-50
2023/05/29 10:12:50;;;;;;;3.80;1.73;;;22.10;86.90;;;;;;5039996;28;20570;-53
2023/05/29 10:15:20;;;;;;;6.13;2.30;;;22.10;87.00;;;;;;5046631;28;20507;-50
2023/05/29 10:17:53;;;;;;;4.00;1.93;;;22.10;87.40;;;;;;5040114;28;20817;-51
2023/05/29 10:20:23;;;;;;;2.63;2.13;;;22.10;87.40;;;;;;5042143;28;20458;-50
2023/05/29 10:22:52;;;;;;;4.13;2.17;;;22.30;87.60;;;;;;5044446;28;20463;-51
2023/05/29 10:25:21;;;;;;;3.60;1.50;;;22.00;87.10;;;;;;5043378;28;20885;-48
2023/05/29 10:27:48;;;;;;;3.70;1.33;;;22.10;87.60;;;;;;5044185;28;20509;-51
2023/05/29 10:30:23;;;;;;;9.63;2.58;;;22.30;87.70;;;;;;5049196;28;20472;-49
2023/05/29 10:33:06;;;;;;;5.17;1.57;;;22.10;87.50;;;;;;5034355;28;20313;-49
2023/05/29 10:35:43;;;;;;;8.00;1.90;;;22.00;87.70;;;;;;5041558;28;20515;-49
2023/05/29 10:38:13;;;;;;;5.20;1.73;;;22.10;88.50;;;;;;5042051;28;20814;-51
2023/05/29 10:40:40;;;;;;;5.73;2.43;;;22.10;88.60;;;;;;5040780;28;20569;-48
2023/05/29 10:43:11;;;;;;;4.07;1.83;;;22.20;88.40;;;;;;5050093;28;20557;-50
2023/05/29 10:45:53;;;;;;;6.00;2.27;;;22.10;88.50;;;;;;5042111;28;20509;-49
2023/05/29 10:48:43;;;;;;;4.50;1.87;;;22.10;88.20;;;;;;5043933;28;20466;-50
2023/05/29 10:51:25;;;;;;;5.38;2.70;;;22.10;88.10;;;;;;5043032;28;20469;-53
2023/05/29 10:53:52;;;;;;;3.83;1.90;;;22.10;88.10;;;;;;5040505;28;20276;-49
2023/05/29 10:56:24;;;;;;;3.47;1.57;;;22.00;88.10;;;;;;5044237;28;20960;-51
2023/05/29 10:58:54;;;;;;;3.17;1.67;;;22.10;87.40;;;;;;5050490;28;20512;-49
2023/05/29 11:01:23;;;;;;;5.43;2.20;;;22.00;86.70;;;;;;5043070;28;20454;-52
2023/05/29 11:03:52;;;;;;;7.00;2.40;;;22.10;87.40;;;;;;5045906;28;20490;-50
2023/05/29 11:06:21;;;;;;;10.27;2.63;;;22.10;87.30;;;;;;5050007;28;20545;-49
2023/05/29 11:08:48;;;;;;;7.47;2.73;;;22.10;88.70;;;;;;5037331;28;20206;-49
2023/05/29 11:11:16;;;;;;;8.50;2.60;;;22.00;86.00;;;;;;5044257;28;20473;-51
2023/05/29 11:13:53;;;;;;;3.10;1.97;;;22.10;85.90;;;;;;5048669;28;20981;-49
2023/05/29 11:16:38;;;;;;;5.43;2.40;;;22.00;70.60;;;;;;5043835;28;20449;-49
2023/05/29 11:19:09;;;;;;;4.03;1.90;;;22.10;71.30;;;;;;5046535;28;20520;-50
2023/05/29 11:21:51;;;;;;;6.40;2.60;;;22.00;71.20;;;;;;5044342;28;20453;-52
2023/05/29 11:24:25;;;;;;;7.45;2.17;;;22.10;71.30;;;;;;5040613;28;20485;-51
2023/05/29 11:26:53;;;;;;;4.40;1.83;;;22.10;71.20;;;;;;5044774;28;20202;-49
2023/05/29 11:29:23;;;;;;;8.73;2.10;;;22.10;71.20;;;;;;5047871;28;20458;-52
2023/05/29 11:31:56;;;;;;;6.97;2.97;;;22.00;71.00;;;;;;5049920;28;20453;-49
2023/05/29 11:34:28;;;;;;;8.95;2.25;;;22.10;71.00;;;;;;5044277;28;20466;-51
2023/05/29 11:36:57;;;;;;;4.33;1.90;;;22.00;70.90;;;;;;5053972;28;20308;-51
2023/05/29 11:39:23;;;;;;;5.97;2.37;;;22.10;71.00;;;;;;5053149;28;20808;-50
2023/05/29 11:41:53;;;;;;;8.60;2.50;;;22.10;70.90;;;;;;5047995;28;20979;-51
2023/05/29 11:44:20;;;;;;;5.00;2.03;;;22.10;71.00;;;;;;5047441;28;21010;-50
2023/05/29 11:46:47;;;;;;;6.47;2.10;;;22.00;70.40;;;;;;5048301;28;20287;-51
2023/05/29 11:49:14;;;;;;;4.00;2.47;;;22.00;70.30;;;;;;5045746;28;20213;-50
2023/05/29 11:51:44;;;;;;;4.37;2.13;;;22.00;70.40;;;;;;5049151;28;20441;-51
2023/05/29 11:54:13;;;;;;;4.93;1.80;;;22.10;70.60;;;;;;5037665;28;20462;-51
2023/05/29 11:56:40;;;;;;;4.10;2.00;;;22.10;70.60;;;;;;5045892;28;20442;-49
2023/05/29 11:59:11;;;;;;;6.10;1.93;;;22.10;70.60;;;;;;5042477;28;20894;-49
2023/05/29 12:01:38;;;;;;;6.30;1.87;;;22.10;70.70;;;;;;5037441;28;20454;-49
2023/05/29 12:04:15;;;;;;;4.37;2.33;;;22.20;70.90;;;;;;5045364;28;20902;-52
2023/05/29 12:06:44;;;;;;;5.23;1.80;;;22.10;70.80;;;;;;5043590;28;21034;-51
2023/05/29 12:09:23;;;;;;;3.75;2.00;;;22.10;70.90;;;;;;5038534;28;20537;-50
2023/05/29 12:11:51;;;;;;;3.40;1.90;;;22.10;70.90;;;;;;5043446;28;20199;-48
2023/05/29 12:14:17;;;;;;;7.33;2.40;;;22.00;70.90;;;;;;5042102;28;20457;-49
2023/05/29 12:16:44;;;;;;;7.87;2.30;;;22.10;72.00;;;;;;5042407;28;20976;-48
2023/05/29 12:19:11;;;;;;;9.30;2.65;;;22.10;71.10;;;;;;5037538;28;20564;-50
2023/05/29 12:21:44;;;;;;;5.60;2.00;;;22.10;71.00;;;;;;5043773;28;20206;-48
2023/05/29 12:24:11;;;;;;;6.80;2.30;;;22.10;71.00;;;;;;5029433;28;20545;-51
2023/05/29 12:26:38;;;;;;;3.53;1.63;;;22.10;71.20;;;;;;5044332;28;20540;-50
2023/05/29 12:29:05;;;;;;;2.27;1.80;;;22.10;71.20;;;;;;5043172;28;20457;-50
2023/05/29 12:31:33;;;;;;;4.30;2.20;;;22.10;71.20;;;;;;5047499;28;20486;-50
2023/05/29 12:34:02;;;;;;;5.43;2.30;;;22.10;71.20;;;;;;5042724;28;20691;-49
2023/05/29 12:36:28;;;;;;;5.60;2.20;;;22.10;71.10;;;;;;5053273;28;20510;-50
2023/05/29 12:38:57;;;;;;;4.70;1.77;;;22.10;71.10;;;;;;5039554;28;20519;-49
2023/05/29 12:41:28;;;;;;;3.40;1.83;;;22.10;71.20;;;;;;5037582;28;20821;-52
2023/05/29 12:43:56;;;;;;;4.40;1.73;;;22.10;71.20;;;;;;5046058;28;20460;-52
2023/05/29 12:46:23;;;;;;;4.57;2.00;;;22.10;71.20;;;;;;5040390;28;20474;-50
2023/05/29 12:48:50;;;;;;;4.97;1.63;;;22.10;71.20;;;;;;5047415;28;20463;-50
2023/05/29 12:51:23;;;;;;;4.10;2.10;;;22.10;71.20;;;;;;5050260;28;20465;-50